createdAt,value
2023-04-14T00:00:00.000Z,81.12
2023-04-14T00:15:00.000Z,80.5
2023-04-14T00:30:00.000Z,80.38
2023-04-14T00:45:00.000Z,79.99
2023-04-14T01:00:00.000Z,79.92
2023-04-14T01:15:00.000Z,79.9
2023-04-14T01:30:00.000Z,80.18
2023-04-14T01:45:00.000Z,80.09
2023-04-14T02:00:00.000Z,80.67
2023-04-14T02:15:00.000Z,80.46
2023-04-14T02:30:00.000Z,80.65
2023-04-14T02:45:00.000Z,80.76
2023-04-14T03:00:00.000Z,80.4
2023-04-14T03:15:00.000Z,80.31
2023-04-14T03:30:00.000Z,80.43
2023-04-14T03:45:00.000Z,80.59
2023-04-14T04:00:00.000Z,80.56
2023-04-14T04:15:00.000Z,80.67
2023-04-14T04:30:00.000Z,80.68
2023-04-14T04:45:00.000Z,81.1
2023-04-14T05:00:00.000Z,80.68
2023-04-14T05:15:00.000Z,80.47
2023-04-14T05:30:00.000Z,80.6
2023-04-14T05:45:00.000Z,80.45
2023-04-14T06:00:00.000Z,80.16
2023-04-14T06:15:00.000Z,80.3
2023-04-14T06:30:00.000Z,80.49
2023-04-14T06:45:00.000Z,80.88
2023-04-14T07:00:00.000Z,80.8
2023-04-14T07:15:00.000Z,81.04
2023-04-14T07:30:00.000Z,81.21
2023-04-14T07:45:00.000Z,81.49
2023-04-14T08:00:00.000Z,81.68
2023-04-14T08:15:00.000Z,81.52
2023-04-14T08:30:00.000Z,81.49
2023-04-14T08:45:00.000Z,81
2023-04-14T09:00:00.000Z,80.91
2023-04-14T09:15:00.000Z,80.72
2023-04-14T09:30:00.000Z,80.71
2023-04-14T09:45:00.000Z,80.52
2023-04-14T10:00:00.000Z,80.4
2023-04-14T10:15:00.000Z,80.24
2023-04-14T10:30:00.000Z,80.3
2023-04-14T10:45:00.000Z,80.17
2023-04-14T11:00:00.000Z,80.21
2023-04-14T11:15:00.000Z,80.16
2023-04-14T11:30:00.000Z,80.14
2023-04-14T11:45:00.000Z,80.02
2023-04-14T12:00:00.000Z,79.86
2023-04-14T12:15:00.000Z,79.2
2023-04-14T12:30:00.000Z,78.72
2023-04-14T12:45:00.000Z,78.74
2023-04-14T13:00:00.000Z,78.46
2023-04-14T13:15:00.000Z,78.28
2023-04-14T13:30:00.000Z,78.1
2023-04-14T13:45:00.000Z,77.8
2023-04-14T14:00:00.000Z,77.77
2023-04-14T14:15:00.000Z,78.14
2023-04-14T14:30:00.000Z,78.87
2023-04-14T14:45:00.000Z,78.93
2023-04-14T15:00:00.000Z,77.88
2023-04-14T15:15:00.000Z,76.38
2023-04-14T15:30:00.000Z,75.89
2023-04-14T15:45:00.000Z,76.61
2023-04-14T16:00:00.000Z,76.96
2023-04-14T16:15:00.000Z,77.52
2023-04-14T16:30:00.000Z,78.03
2023-04-14T16:45:00.000Z,78.12
2023-04-14T17:00:00.000Z,78.63
2023-04-14T17:15:00.000Z,78.88
2023-04-14T17:30:00.000Z,79.13
2023-04-14T17:45:00.000Z,79.53
2023-04-14T18:00:00.000Z,79.81
2023-04-14T18:15:00.000Z,80.22
2023-04-14T18:30:00.000Z,80.51
2023-04-14T18:45:00.000Z,80.62
2023-04-14T19:00:00.000Z,80.47
2023-04-14T19:15:00.000Z,80.27
2023-04-14T19:30:00.000Z,80.12
2023-04-14T19:45:00.000Z,80.3
2023-04-14T20:00:00.000Z,80.5
2023-04-14T20:15:00.000Z,80.62
2023-04-14T20:30:00.000Z,80.78
2023-04-14T20:45:00.000Z,80.7
2023-04-14T21:00:00.000Z,80.72
2023-04-14T21:15:00.000Z,80.68
2023-04-14T21:30:00.000Z,80.67
2023-04-14T21:45:00.000Z,80.51
2023-04-14T22:00:00.000Z,80.42
2023-04-14T22:15:00.000Z,80.21
2023-04-14T22:30:00.000Z,80.16
2023-04-14T22:45:00.000Z,79.96
2023-04-14T23:00:00.000Z,79.84
2023-04-14T23:15:00.000Z,79.71
2023-04-14T23:30:00.000Z,79.61
2023-04-14T23:45:00.000Z,79.47
